createdAt,value
2022-12-08T00:01:06.446Z,90510.13
2022-12-08T00:03:33.238Z,90512.97
2022-12-08T00:06:18.391Z,90506.84
2022-12-08T00:09:03.049Z,90508.38
2022-12-08T00:11:29.332Z,90503.97
2022-12-08T00:13:55.647Z,90500.13
2022-12-08T00:16:21.977Z,90504.72
2022-12-08T00:18:48.342Z,90496.50
2022-12-08T00:21:14.629Z,90493.72
2022-12-08T00:23:40.931Z,90488.91
2022-12-08T00:26:07.193Z,90486.63
2022-12-08T00:28:33.894Z,90480.81
2022-12-08T00:31:00.229Z,90479.69
2022-12-08T00:33:29.503Z,90483.69
2022-12-08T00:35:55.785Z,90487.31
2022-12-08T00:38:22.080Z,90483.38
2022-12-08T00:40:48.383Z,90485.00
2022-12-08T00:43:14.747Z,90486.13
2022-12-08T00:45:41.200Z,90483.41
2022-12-08T00:48:07.557Z,90484.69
2022-12-08T00:50:33.928Z,90473.78
2022-12-08T00:53:00.203Z,90477.56
2022-12-08T00:55:26.532Z,90475.66
2022-12-08T00:57:52.833Z,90469.38
2022-12-08T01:00:19.319Z,90468.28
2022-12-08T01:02:45.592Z,90471.28
2022-12-08T01:05:11.864Z,90473.88
2022-12-08T01:07:38.163Z,90469.47
2022-12-08T01:10:04.985Z,90476.75
2022-12-08T01:12:31.449Z,90477.06
2022-12-08T01:15:02.027Z,90481.91
2022-12-08T01:17:28.892Z,90471.66
2022-12-08T01:19:55.171Z,90470.16
2022-12-08T01:22:21.474Z,90469.72
2022-12-08T01:24:47.770Z,90474.56
2022-12-08T01:27:15.258Z,90468.94
2022-12-08T01:29:41.511Z,90474.63
2022-12-08T01:32:08.125Z,90468.84
2022-12-08T01:34:34.722Z,90466.63
2022-12-08T01:37:01.004Z,90470.22
2022-12-08T01:39:27.361Z,90462.28
2022-12-08T01:41:53.686Z,90464.41
2022-12-08T01:44:19.994Z,90462.38
2022-12-08T01:46:48.396Z,90465.91
2022-12-08T01:49:20.644Z,90460.22
2022-12-08T01:51:56.520Z,90457.19
2022-12-08T01:54:23.386Z,90457.72
2022-12-08T01:56:51.769Z,90454.59
2022-12-08T01:59:18.057Z,90450.28
2022-12-08T02:01:44.383Z,90456.66
2022-12-08T02:04:10.715Z,90456.16
2022-12-08T02:06:37.742Z,90452.03
2022-12-08T02:09:04.138Z,90444.72
2022-12-08T02:11:30.407Z,90447.72
2022-12-08T02:13:57.269Z,90444.91
2022-12-08T02:16:23.583Z,90440.19
2022-12-08T02:19:07.989Z,90442.03
2022-12-08T02:21:48.312Z,90436.72
2022-12-08T02:24:17.622Z,90442.41
2022-12-08T02:26:58.342Z,90436.59
2022-12-08T02:29:31.187Z,90436.00
2022-12-08T02:32:16.274Z,90433.56
2022-12-08T02:34:47.514Z,90437.97
2022-12-08T02:37:18.076Z,90432.00
2022-12-08T02:39:45.800Z,90431.28
2022-12-08T02:42:17.667Z,90432.00
2022-12-08T02:44:48.524Z,90425.97
2022-12-08T02:47:15.828Z,90424.28
2022-12-08T02:49:42.120Z,90413.94
2022-12-08T02:52:11.421Z,90421.16
2022-12-08T02:54:37.690Z,90418.66
2022-12-08T02:57:13.174Z,90414.56
2022-12-08T02:59:43.170Z,90411.97
2022-12-08T03:02:21.746Z,90417.66
2022-12-08T03:04:58.292Z,90413.44
2022-12-08T03:07:25.739Z,90414.94
2022-12-08T03:09:56.364Z,90404.81
2022-12-08T03:12:25.646Z,90403.34
2022-12-08T03:14:53.160Z,90406.53
2022-12-08T03:17:19.926Z,90391.63
2022-12-08T03:19:46.288Z,90395.25
2022-12-08T03:22:12.550Z,90398.53
2022-12-08T03:24:39.517Z,90395.53
2022-12-08T03:27:05.790Z,90394.22
2022-12-08T03:29:32.085Z,90390.72
2022-12-08T03:31:59.130Z,90388.72
2022-12-08T03:34:25.751Z,90392.41
2022-12-08T03:36:52.040Z,90384.97
2022-12-08T03:39:18.319Z,90383.56
2022-12-08T03:41:44.637Z,90378.03
2022-12-08T03:44:10.905Z,90379.75
2022-12-08T03:46:37.261Z,90378.03
2022-12-08T03:49:03.549Z,90370.44
2022-12-08T03:51:29.898Z,90366.44
2022-12-08T03:53:56.175Z,90373.25
2022-12-08T03:56:26.683Z,90365.06
2022-12-08T03:58:53.405Z,90362.72
2022-12-08T04:01:19.847Z,90358.47
2022-12-08T04:03:46.252Z,90361.56
2022-12-08T04:06:12.563Z,90362.78
2022-12-08T04:08:38.848Z,90360.81
2022-12-08T04:11:06.421Z,90360.78
2022-12-08T04:13:35.893Z,90361.69
2022-12-08T04:16:02.253Z,90364.53
2022-12-08T04:18:28.564Z,90357.66
2022-12-08T04:20:54.940Z,90346.63
2022-12-08T04:23:21.213Z,90341.50
2022-12-08T04:25:47.487Z,90335.59
2022-12-08T04:28:13.776Z,90340.59
2022-12-08T04:30:40.032Z,90338.69
2022-12-08T04:33:06.308Z,90340.59
2022-12-08T04:35:32.570Z,90346.34
2022-12-08T04:37:58.900Z,90348.34
2022-12-08T04:40:25.186Z,90345.41
2022-12-08T04:42:51.475Z,90342.56
2022-12-08T04:45:17.788Z,90351.13
2022-12-08T04:47:44.067Z,90349.44
2022-12-08T04:50:10.425Z,90351.13
2022-12-08T04:52:36.744Z,90349.59
2022-12-08T04:55:03.016Z,90344.22
2022-12-08T04:57:29.273Z,90347.03
2022-12-08T04:59:55.623Z,90335.00
2022-12-08T05:02:21.944Z,90346.81
2022-12-08T05:04:48.306Z,90339.66
2022-12-08T05:07:14.589Z,90333.94
2022-12-08T05:09:40.848Z,90326.94
2022-12-08T05:12:07.212Z,90327.91
2022-12-08T05:14:33.473Z,90328.22
2022-12-08T05:17:02.554Z,90334.56
2022-12-08T05:19:31.193Z,90327.91
2022-12-08T05:21:57.472Z,90329.81
2022-12-08T05:24:23.755Z,90328.22
2022-12-08T05:26:50.015Z,90319.25
2022-12-08T05:29:16.289Z,90326.09
2022-12-08T05:31:42.578Z,90325.56
2022-12-08T05:34:08.871Z,90321.97
2022-12-08T05:36:35.158Z,90322.47
2022-12-08T05:39:01.440Z,90322.19
2022-12-08T05:41:27.694Z,90320.94
2022-12-08T05:43:53.947Z,90326.16
2022-12-08T05:46:20.287Z,90320.94
2022-12-08T05:48:46.565Z,90319.50
2022-12-08T05:51:19.871Z,90329.19
2022-12-08T05:53:46.449Z,90321.38
2022-12-08T05:56:12.784Z,90322.56
2022-12-08T05:58:39.102Z,90312.47
2022-12-08T06:01:05.409Z,90316.91
2022-12-08T06:03:31.769Z,90327.44
2022-12-08T06:05:58.114Z,90323.22
2022-12-08T06:08:24.459Z,90326.72
2022-12-08T06:10:50.854Z,90327.16
2022-12-08T06:13:17.152Z,90324.19
2022-12-08T06:15:43.416Z,90334.44
2022-12-08T06:18:09.747Z,90332.13
2022-12-08T06:20:36.003Z,90331.19
2022-12-08T06:23:03.372Z,90330.59
2022-12-08T06:25:29.643Z,90330.72
2022-12-08T06:27:55.898Z,90329.28
2022-12-08T06:30:22.195Z,90329.56
2022-12-08T06:32:48.524Z,90329.88
2022-12-08T06:35:14.792Z,90326.81
2022-12-08T06:37:41.062Z,90325.72
2022-12-08T06:40:07.874Z,90334.88
2022-12-08T06:42:46.415Z,90330.28
2022-12-08T06:45:13.280Z,90328.06
2022-12-08T06:47:39.561Z,90329.91
2022-12-08T06:50:06.386Z,90328.88
2022-12-08T06:52:32.927Z,90328.38
2022-12-08T06:54:59.205Z,90333.47
2022-12-08T06:57:25.674Z,90326.63
2022-12-08T06:59:51.947Z,90330.91
2022-12-08T07:02:18.315Z,90322.47
2022-12-08T07:04:44.678Z,90322.91
2022-12-08T07:07:10.976Z,90324.22
2022-12-08T07:09:37.292Z,90331.09
2022-12-08T07:12:04.154Z,90321.50
2022-12-08T07:14:30.437Z,90320.88
2022-12-08T07:16:56.762Z,90327.88
2022-12-08T07:19:23.079Z,90328.06
2022-12-08T07:21:49.412Z,90324.53
2022-12-08T07:24:15.677Z,90323.91
2022-12-08T07:26:42.036Z,90325.81
2022-12-08T07:29:09.557Z,90324.47
2022-12-08T07:31:35.831Z,90322.53
2022-12-08T07:34:02.126Z,90323.16
2022-12-08T07:36:28.438Z,90323.28
2022-12-08T07:38:54.795Z,90322.56
2022-12-08T07:41:23.525Z,90324.84
2022-12-08T07:43:50.020Z,90321.88
2022-12-08T07:46:17.511Z,90326.94
2022-12-08T07:48:43.869Z,90326.34
2022-12-08T07:51:10.540Z,90317.38
2022-12-08T07:53:42.286Z,90321.03
2022-12-08T07:56:09.463Z,90315.03
2022-12-08T07:58:35.759Z,90313.00
2022-12-08T08:01:02.175Z,90305.31
2022-12-08T08:03:28.594Z,90300.34
2022-12-08T08:05:54.982Z,90309.53
2022-12-08T08:08:21.328Z,90305.50
2022-12-08T08:10:47.735Z,90307.22
2022-12-08T08:13:14.021Z,90299.66
2022-12-08T08:15:40.421Z,90299.97
2022-12-08T08:18:06.904Z,90302.19
2022-12-08T08:20:33.257Z,90302.84
2022-12-08T08:22:59.556Z,90299.66
2022-12-08T08:25:25.832Z,90301.47
2022-12-08T08:27:52.162Z,90308.53
2022-12-08T08:30:20.903Z,90302.69
2022-12-08T08:32:47.845Z,90315.22
2022-12-08T08:35:14.147Z,90306.88
2022-12-08T08:37:43.157Z,90298.31
2022-12-08T08:40:13.495Z,90296.91
2022-12-08T08:42:39.918Z,90295.88
2022-12-08T08:45:06.419Z,90294.13
2022-12-08T08:47:32.690Z,90287.56
2022-12-08T08:50:01.888Z,90291.72
2022-12-08T08:52:28.478Z,90284.28
2022-12-08T08:54:54.746Z,90289.13
2022-12-08T08:57:25.483Z,90285.66
2022-12-08T08:59:52.213Z,90288.44
2022-12-08T09:02:19.012Z,90295.97
2022-12-08T09:04:45.546Z,90292.53
2022-12-08T09:07:11.923Z,90280.38
2022-12-08T09:09:38.518Z,90283.31
2022-12-08T09:12:05.037Z,90282.59
2022-12-08T09:14:31.313Z,90280.44
2022-12-08T09:16:57.604Z,90266.84
2022-12-08T09:19:23.876Z,90267.03
2022-12-08T09:21:50.141Z,90271.47
2022-12-08T09:24:16.530Z,90266.91
2022-12-08T09:26:43.729Z,90260.69
2022-12-08T09:29:10.289Z,90263.16
2022-12-08T09:31:36.671Z,90265.59
2022-12-08T09:34:03.439Z,90265.28
2022-12-08T09:36:29.869Z,90256.91
2022-12-08T09:38:56.148Z,90262.47
2022-12-08T09:41:36.838Z,90261.41
2022-12-08T09:44:25.627Z,90264.06
2022-12-08T09:46:52.284Z,90260.94
2022-12-08T09:49:19.509Z,90258.50
2022-12-08T09:51:46.156Z,90260.78
2022-12-08T09:54:15.800Z,90254.34
2022-12-08T09:56:42.102Z,90262.19
2022-12-08T09:59:08.309Z,90249.09
2022-12-08T10:01:38.007Z,90248.03
2022-12-08T10:04:04.604Z,90252.06
2022-12-08T10:06:31.771Z,90240.72
2022-12-08T10:09:03.488Z,90232.38
2022-12-08T10:11:37.135Z,90229.59
2022-12-08T10:14:07.932Z,90222.41
2022-12-08T10:16:35.040Z,90206.53
2022-12-08T10:19:02.352Z,90211.41
2022-12-08T10:21:28.785Z,90204.97
2022-12-08T10:24:00.045Z,90205.66
2022-12-08T10:26:26.556Z,90207.41
2022-12-08T10:28:52.841Z,90204.63
2022-12-08T10:31:22.769Z,90192.75
2022-12-08T10:33:57.813Z,90196.06
2022-12-08T10:36:27.559Z,90197.63
2022-12-08T10:38:53.821Z,90193.44
2022-12-08T10:41:20.688Z,90189.78
2022-12-08T10:43:48.024Z,90190.44
2022-12-08T10:46:18.695Z,90181.53
2022-12-08T10:48:49.361Z,90179.97
2022-12-08T10:51:22.234Z,90167.94
2022-12-08T10:53:48.504Z,90170.94
2022-12-08T10:56:15.305Z,90174.91
2022-12-08T10:58:42.259Z,90160.41
2022-12-08T11:01:24.658Z,90150.31
2022-12-08T11:03:51.950Z,90163.88
2022-12-08T11:06:31.186Z,90153.56
2022-12-08T11:08:58.184Z,90147.31
2022-12-08T11:11:44.263Z,90148.19
2022-12-08T11:14:15.435Z,90138.03
2022-12-08T11:16:42.117Z,90137.09
2022-12-08T11:19:15.697Z,90134.63
2022-12-08T11:21:42.788Z,90119.78
2022-12-08T11:24:20.398Z,90120.84
2022-12-08T11:26:49.349Z,90109.81
2022-12-08T11:29:17.307Z,90106.84
2022-12-08T11:31:50.819Z,90105.28
2022-12-08T11:34:29.692Z,90102.88
2022-12-08T11:36:55.991Z,90106.50
2022-12-08T11:39:22.285Z,90106.47
2022-12-08T11:41:48.622Z,90091.06
2022-12-08T11:44:24.151Z,90081.47
2022-12-08T11:46:56.857Z,90081.63
2022-12-08T11:49:23.134Z,90073.75
2022-12-08T11:52:12.005Z,90085.28
2022-12-08T11:54:42.898Z,90073.97
2022-12-08T11:57:11.672Z,90073.97
2022-12-08T11:59:39.601Z,90067.47
2022-12-08T12:02:05.940Z,90069.66
2022-12-08T12:04:41.298Z,90059.13
2022-12-08T12:07:25.987Z,90061.84
2022-12-08T12:10:11.563Z,90049.88
2022-12-08T12:12:50.131Z,90042.72
2022-12-08T12:15:21.035Z,90054.91
2022-12-08T12:18:00.830Z,90050.56
2022-12-08T12:20:30.140Z,90045.97
2022-12-08T12:23:19.800Z,90038.47
2022-12-08T12:25:48.166Z,90033.03
2022-12-08T12:28:14.460Z,90025.38
2022-12-08T12:30:49.955Z,90032.91
2022-12-08T12:33:17.571Z,90026.16
2022-12-08T12:35:43.956Z,90023.28
2022-12-08T12:38:42.729Z,90016.91
2022-12-08T12:41:09.183Z,90012.34
2022-12-08T12:43:36.035Z,90014.75
2022-12-08T12:46:21.099Z,90017.72
2022-12-08T12:48:47.403Z,90019.63
2022-12-08T12:51:43.155Z,90015.66
2022-12-08T12:54:19.847Z,90012.47
2022-12-08T12:56:46.861Z,90020.81
2022-12-08T12:59:22.799Z,90023.06
2022-12-08T13:01:51.080Z,90008.19
2022-12-08T13:04:17.476Z,90007.66
2022-12-08T13:06:45.500Z,90004.56
2022-12-08T13:09:22.006Z,90013.88
2022-12-08T13:11:52.019Z,90010.38
2022-12-08T13:14:37.236Z,90007.63
2022-12-08T13:17:05.656Z,89998.69
2022-12-08T13:19:32.144Z,90003.22
2022-12-08T13:21:58.697Z,90001.13
2022-12-08T13:24:24.963Z,89997.28
2022-12-08T13:26:51.184Z,89998.19
2022-12-08T13:29:21.713Z,90004.84
2022-12-08T13:32:08.316Z,90012.31
2022-12-08T13:34:34.682Z,90006.59
2022-12-08T13:37:02.256Z,90003.53
2022-12-08T13:39:41.009Z,90013.19
2022-12-08T13:42:13.308Z,90005.16
2022-12-08T13:52:59.960Z,90002.00
2022-12-08T13:54:45.534Z,89998.19
2022-12-08T13:59:20.468Z,89998.94
2022-12-08T14:01:49.826Z,90007.34
2022-12-08T14:07:03.949Z,90003.94
2022-12-08T14:09:36.429Z,90005.81
2022-12-08T14:12:06.884Z,90009.03
2022-12-08T14:15:01.649Z,89997.56
2022-12-08T14:17:24.876Z,89991.75
2022-12-08T14:19:58.350Z,89995.59
2022-12-08T14:22:24.886Z,89993.03
2022-12-08T14:24:52.177Z,89987.78
2022-12-08T14:27:19.377Z,89985.44
2022-12-08T14:29:48.880Z,89985.06
2022-12-08T14:32:19.456Z,89979.06
2022-12-08T14:34:45.981Z,89983.97
2022-12-08T14:37:12.281Z,89977.78
2022-12-08T14:39:38.776Z,89985.56
2022-12-08T14:42:05.073Z,89973.22
2022-12-08T14:44:32.084Z,89978.72
2022-12-08T14:47:05.883Z,89974.84
2022-12-08T14:49:36.346Z,89976.63
2022-12-08T14:52:02.677Z,89978.03
2022-12-08T14:54:29.644Z,89962.66
2022-12-08T14:56:56.223Z,89971.97
2022-12-08T14:59:26.278Z,89978.75
2022-12-08T15:01:53.890Z,89973.34
2022-12-08T15:04:22.998Z,89974.47
2022-12-08T15:06:54.160Z,89977.81
2022-12-08T15:09:32.637Z,89975.78
2022-12-08T15:12:05.894Z,89975.78
2022-12-08T15:14:39.814Z,89982.41
2022-12-08T15:17:26.094Z,89980.81
2022-12-08T15:19:56.004Z,89990.94
2022-12-08T15:22:22.848Z,89990.22
2022-12-08T15:24:49.122Z,89975.22
2022-12-08T15:27:16.453Z,89974.13
2022-12-08T15:29:42.741Z,89975.75
2022-12-08T15:32:09.040Z,89971.91
2022-12-08T15:34:37.147Z,89967.75
2022-12-08T15:37:03.456Z,89974.13
2022-12-08T15:39:36.704Z,89963.84
2022-12-08T15:42:03.504Z,89979.56
2022-12-08T15:44:32.364Z,89979.53
2022-12-08T15:46:58.756Z,89964.81
2022-12-08T15:49:25.126Z,89961.63
2022-12-08T15:51:55.704Z,89964.94
2022-12-08T15:54:26.979Z,89967.97
2022-12-08T15:57:17.964Z,89980.44
2022-12-08T15:59:39.872Z,89966.19
2022-12-08T16:02:06.235Z,89967.91
2022-12-08T16:07:23.504Z,89969.56
2022-12-08T16:09:49.952Z,89975.88
2022-12-08T16:13:26.683Z,89979.91
2022-12-08T16:18:13.012Z,89976.03
2022-12-08T16:21:06.134Z,89971.28
2022-12-08T16:23:42.429Z,89975.09
2022-12-08T16:26:44.091Z,89979.19
2022-12-08T16:28:57.313Z,89973.13
2022-12-08T16:31:23.792Z,89977.75
2022-12-08T16:33:50.103Z,89987.78
2022-12-08T16:36:16.411Z,89985.19
2022-12-08T16:38:42.673Z,89984.84
2022-12-08T16:41:36.698Z,89979.97
2022-12-08T16:44:03.706Z,89982.25
2022-12-08T16:46:30.036Z,89979.47
2022-12-08T16:48:59.205Z,89984.16
2022-12-08T16:51:27.219Z,89986.03
2022-12-08T16:53:54.077Z,89975.75
2022-12-08T16:56:20.840Z,89981.47
2022-12-08T16:58:47.249Z,89983.75
2022-12-08T17:01:14.286Z,89987.69
2022-12-08T17:03:41.210Z,89993.75
2022-12-08T17:06:08.316Z,89987.06
2022-12-08T17:08:34.586Z,89983.00
2022-12-08T17:11:11.628Z,89984.31
2022-12-08T17:13:41.257Z,90001.06
2022-12-08T17:16:08.459Z,89989.81
2022-12-08T17:18:34.804Z,89995.34
2022-12-08T17:21:01.059Z,89991.19
2022-12-08T17:23:27.391Z,89981.84
2022-12-08T17:25:57.828Z,89971.47
2022-12-08T17:28:51.639Z,89975.47
2022-12-08T17:31:13.668Z,89972.91
2022-12-08T17:33:39.990Z,89972.38
2022-12-08T17:36:07.890Z,89965.34
2022-12-08T17:38:34.162Z,89970.28
2022-12-08T17:41:03.902Z,89964.28
2022-12-08T17:43:30.234Z,89954.94
2022-12-08T17:45:56.550Z,89962.28
2022-12-08T17:48:22.855Z,89953.72
2022-12-08T17:50:49.211Z,89947.09
2022-12-08T17:53:15.474Z,89952.91
2022-12-08T17:55:41.960Z,89956.66
2022-12-08T17:58:08.279Z,89945.97
2022-12-08T18:00:35.227Z,89940.91
2022-12-08T18:03:01.520Z,89946.19
2022-12-08T18:05:27.796Z,89946.44
2022-12-08T18:07:54.141Z,89944.03
2022-12-08T18:10:20.483Z,89951.00
2022-12-08T18:12:46.757Z,89947.91
2022-12-08T18:15:15.225Z,89953.53
2022-12-08T18:17:41.482Z,89952.81
2022-12-08T18:20:08.166Z,89951.84
2022-12-08T18:22:34.658Z,89948.00
2022-12-08T18:25:00.937Z,89949.31
2022-12-08T18:27:27.196Z,89944.75
2022-12-08T18:29:53.561Z,89948.91
2022-12-08T18:32:23.422Z,89939.78
2022-12-08T18:34:50.061Z,89938.59
2022-12-08T18:37:16.383Z,89939.06
2022-12-08T18:39:42.640Z,89939.13
2022-12-08T18:42:23.990Z,89938.44
2022-12-08T18:44:56.187Z,89930.38
2022-12-08T18:47:22.472Z,89924.47
2022-12-08T18:49:48.983Z,89933.09
2022-12-08T18:52:18.969Z,89934.53
2022-12-08T18:55:05.880Z,89927.09
2022-12-08T18:57:33.224Z,89928.44
2022-12-08T18:59:59.567Z,89920.72
2022-12-08T19:02:25.982Z,89932.16
2022-12-08T19:04:54.586Z,89924.09
2022-12-08T19:07:20.845Z,89921.16
2022-12-08T19:09:47.191Z,89915.13
2022-12-08T19:12:13.456Z,89927.94
2022-12-08T19:14:40.171Z,89921.72
2022-12-08T19:17:06.499Z,89919.88
2022-12-08T19:19:32.898Z,89914.84
2022-12-08T19:21:59.178Z,89916.63
2022-12-08T19:24:25.588Z,89922.91
2022-12-08T19:26:51.978Z,89918.56
2022-12-08T19:29:18.289Z,89924.22
2022-12-08T19:31:44.728Z,89918.75
2022-12-08T19:34:11.927Z,89912.88
2022-12-08T19:36:42.345Z,89916.28
2022-12-08T19:39:29.568Z,89928.84
2022-12-08T19:42:14.678Z,89929.50
2022-12-08T19:44:52.730Z,89921.03
2022-12-08T19:47:22.846Z,89921.25
2022-12-08T19:49:49.194Z,89912.81
2022-12-08T19:52:15.501Z,89922.88
2022-12-08T19:54:41.780Z,89926.94
2022-12-08T19:57:08.100Z,89923.72
2022-12-08T19:59:34.361Z,89916.81
2022-12-08T20:02:00.771Z,89925.22
2022-12-08T20:04:27.134Z,89926.66
2022-12-08T20:06:53.647Z,89923.13
2022-12-08T20:09:20.218Z,89924.84
2022-12-08T20:11:46.529Z,89925.28
2022-12-08T20:14:12.832Z,89917.09
2022-12-08T20:16:41.011Z,89920.50
2022-12-08T20:19:07.530Z,89910.84
2022-12-08T20:21:33.826Z,89912.69
2022-12-08T20:24:00.109Z,89904.25
2022-12-08T20:26:26.387Z,89911.47
2022-12-08T20:28:52.676Z,89898.25
2022-12-08T20:31:22.999Z,89908.88
2022-12-08T20:33:49.414Z,89905.34
2022-12-08T20:36:17.959Z,89906.44
2022-12-08T20:38:44.820Z,89911.16
2022-12-08T20:41:11.234Z,89900.69
2022-12-08T20:43:37.676Z,89897.19
2022-12-08T20:46:07.467Z,89896.84
2022-12-08T20:48:33.979Z,89887.22
2022-12-08T20:51:00.396Z,89886.44
2022-12-08T20:53:26.806Z,89888.16
2022-12-08T20:55:53.287Z,89877.94
2022-12-08T20:58:19.642Z,89873.72
2022-12-08T21:00:46.012Z,89872.78
2022-12-08T21:03:12.716Z,89864.00
2022-12-08T21:05:39.469Z,89871.69
2022-12-08T21:08:06.487Z,89868.94
2022-12-08T21:10:33.150Z,89868.00
2022-12-08T21:13:01.773Z,89869.53
2022-12-08T21:15:28.310Z,89871.94
2022-12-08T21:17:57.450Z,89869.69
2022-12-08T21:20:23.965Z,89887.00
2022-12-08T21:22:50.299Z,89882.56
2022-12-08T21:25:16.820Z,89888.19
2022-12-08T21:27:43.230Z,89889.88
2022-12-08T21:30:10.342Z,89893.53
2022-12-08T21:32:40.207Z,89880.09
2022-12-08T21:35:07.062Z,89882.34
2022-12-08T21:37:33.461Z,89879.06
2022-12-08T21:39:59.727Z,89885.09
2022-12-08T21:42:44.455Z,89875.09
2022-12-08T21:45:14.838Z,89876.41
2022-12-08T21:47:41.325Z,89870.25
2022-12-08T21:50:08.348Z,89878.34
2022-12-08T21:52:38.541Z,89879.44
2022-12-08T21:55:05.386Z,89886.66
2022-12-08T21:57:31.719Z,89887.44
2022-12-08T21:59:58.044Z,89881.91
2022-12-08T22:02:24.552Z,89885.91
2022-12-08T22:04:52.477Z,89881.53
2022-12-08T22:07:19.628Z,89870.34
2022-12-08T22:09:46.017Z,89877.19
2022-12-08T22:12:12.888Z,89867.72
2022-12-08T22:14:42.204Z,89870.22
2022-12-08T22:17:08.554Z,89865.63
2022-12-08T22:19:34.912Z,89857.31
2022-12-08T22:22:01.196Z,89851.03
2022-12-08T22:24:29.373Z,89859.50
2022-12-08T22:26:55.649Z,89861.50
2022-12-08T22:29:22.167Z,89861.94
2022-12-08T22:31:48.580Z,89865.50
2022-12-08T22:34:14.940Z,89863.94
2022-12-08T22:36:42.210Z,89867.13
2022-12-08T22:39:09.598Z,89875.72
2022-12-08T22:41:36.119Z,89869.31
2022-12-08T22:44:04.968Z,89872.06
2022-12-08T22:46:31.323Z,89866.81
2022-12-08T22:48:57.638Z,89849.31
2022-12-08T22:51:23.990Z,89856.03
2022-12-08T22:53:50.323Z,89857.13
2022-12-08T22:56:17.627Z,89848.28
2022-12-08T22:58:44.448Z,89838.09
2022-12-08T23:01:30.044Z,89843.56
2022-12-08T23:03:56.829Z,89841.72
2022-12-08T23:06:23.664Z,89838.63
2022-12-08T23:08:50.353Z,89844.81
2022-12-08T23:11:16.702Z,89843.91
2022-12-08T23:13:42.979Z,89840.09
2022-12-08T23:16:09.633Z,89844.72
2022-12-08T23:18:36.097Z,89829.09
2022-12-08T23:21:03.340Z,89827.88
2022-12-08T23:23:29.790Z,89822.38
2022-12-08T23:25:56.103Z,89829.75
2022-12-08T23:28:22.412Z,89829.16
2022-12-08T23:30:48.778Z,89829.88
2022-12-08T23:33:15.234Z,89827.75
2022-12-08T23:35:41.725Z,89841.78
2022-12-08T23:38:08.081Z,89847.72
2022-12-08T23:40:34.368Z,89827.84
2022-12-08T23:43:00.726Z,89836.66
2022-12-08T23:45:27.025Z,89828.63
2022-12-08T23:47:53.321Z,89831.84
2022-12-08T23:50:19.665Z,89832.09
2022-12-08T23:52:45.981Z,89827.53
2022-12-08T23:55:12.364Z,89821.91
2022-12-08T23:57:38.794Z,89820.44
